Time;durP1;ratioP1;P1;durP2;ratioP2;P2;SDS_P1;SDS_P2;PMS_P1;PMS_P2;Temp;Humidity;BMP_temperature;BMP_pressure;BME280_temperature;BME280_humidity;BME280_pressure;Samples;Min_cycle;Max_cycle;Signal;HPM_P1;HPM_P2
2021/03/29 00:02:24;;;;;;;0.35;0.35;;;;;;;;;;5081291;28;20183;-69
2021/03/29 00:04:50;;;;;;;0.32;0.32;;;;;;;;;;5089301;28;20156;-68
2021/03/29 00:07:17;;;;;;;0.10;0.10;;;;;;;;;;5071245;28;20280;-68
2021/03/29 00:09:44;;;;;;;0.20;0.20;;;;;;;;;;5089253;28;20194;-68
2021/03/29 00:12:11;;;;;;;0.30;0.30;;;;;;;;;;5071334;28;20168;-67
2021/03/29 00:14:39;;;;;;;0.55;0.55;;;;;;;;;;5089045;28;20247;-68
2021/03/29 00:17:06;;;;;;;0.10;0.10;;;;;;;;;;5071187;28;20195;-68
2021/03/29 00:19:33;;;;;;;0.65;0.65;;;;;;;;;;5070961;28;20202;-68
2021/03/29 00:22:00;;;;;;;0.10;0.10;;;;;;;;;;5089236;28;20172;-69
2021/03/29 00:24:27;;;;;;;0.73;0.73;;;;;;;;;;5071094;28;20183;-69
2021/03/29 00:26:53;;;;;;;0.32;0.32;;;;;;;;;;5088949;28;20188;-68
2021/03/29 00:29:20;;;;;;;0.25;0.25;;;;;;;;;;5076067;28;20204;-68
2021/03/29 00:31:46;;;;;;;0.30;0.30;;;;;;;;;;5068935;28;20535;-68
2021/03/29 00:34:13;;;;;;;0.25;0.25;;;;;;;;;;5050967;28;20173;-68
2021/03/29 00:36:40;;;;;;;3.40;1.83;;;;;;;;;;5086915;28;20226;-68
2021/03/29 00:39:07;;;;;;;0.47;0.30;;;;;;;;;;5070956;28;20214;-68
2021/03/29 00:41:34;;;;;;;0.10;0.10;;;;;;;;;;5088907;28;20180;-68
2021/03/29 00:44:02;;;;;;;1.98;0.93;;;;;;;;;;5089259;28;20161;-68
2021/03/29 00:46:29;;;;;;;0.10;0.10;;;;;;;;;;5074711;28;20195;-68
2021/03/29 00:48:57;;;;;;;1.20;1.20;;;;;;;;;;5092283;28;20231;-68
2021/03/29 00:51:24;;;;;;;0.40;0.40;;;;;;;;;;5074555;28;20180;-68
2021/03/29 00:53:51;;;;;;;1.52;1.42;;;;;;;;;;5092619;28;20160;-68
2021/03/29 00:56:18;;;;;;;1.10;0.75;;;;;;;;;;5092685;28;20164;-68
2021/03/29 00:58:45;;;;;;;1.42;1.35;;;;;;;;;;5074578;28;20210;-68
2021/03/29 01:01:13;;;;;;;0.10;0.10;;;;;;;;;;5074578;28;20266;-68
2021/03/29 01:03:42;;;;;;;0.32;0.32;;;;;;;;;;5092383;28;20159;-68
2021/03/29 01:06:12;;;;;;;0.08;0.08;;;;;;;;;;5092388;28;20167;-69
2021/03/29 01:08:42;;;;;;;0.90;0.90;;;;;;;;;;5074512;28;20259;-69
2021/03/29 01:11:14;;;;;;;0.70;0.68;;;;;;;;;;5074549;28;20176;-68
2021/03/29 01:13:54;;;;;;;0.40;0.40;;;;;;;;;;5092248;28;20156;-69
2021/03/29 01:16:21;;;;;;;1.00;1.00;;;;;;;;;;5074313;28;20183;-69
2021/03/29 01:18:48;;;;;;;0.65;0.65;;;;;;;;;;5092159;28;20220;-68
2021/03/29 01:21:44;;;;;;;0.38;0.38;;;;;;;;;;5074089;28;20180;-68
2021/03/29 01:24:20;;;;;;;0.57;0.57;;;;;;;;;;5070710;28;20199;-68
2021/03/29 01:26:47;;;;;;;1.48;1.42;;;;;;;;;;5073939;28;20203;-68
2021/03/29 01:29:14;;;;;;;0.10;0.10;;;;;;;;;;5091912;28;20218;-68
2021/03/29 01:31:41;;;;;;;0.10;0.10;;;;;;;;;;5073988;28;20174;-68
2021/03/29 01:34:10;;;;;;;0.35;0.35;;;;;;;;;;5091948;28;20160;-68
2021/03/29 01:36:36;;;;;;;1.05;1.00;;;;;;;;;;5091938;28;20572;-68
2021/03/29 01:39:04;;;;;;;0.20;0.20;;;;;;;;;;5091769;28;20282;-68
2021/03/29 01:41:31;;;;;;;0.20;0.20;;;;;;;;;;5091722;28;20525;-68
2021/03/29 01:43:58;;;;;;;0.25;0.25;;;;;;;;;;5091733;28;20168;-68
2021/03/29 01:46:25;;;;;;;0.10;0.10;;;;;;;;;;5091674;28;20192;-68
2021/03/29 01:48:51;;;;;;;0.82;0.70;;;;;;;;;;5091469;28;20220;-69
2021/03/29 01:51:18;;;;;;;1.10;0.55;;;;;;;;;;5091620;28;20164;-68
2021/03/29 01:53:46;;;;;;;0.20;0.20;;;;;;;;;;5091482;28;20157;-68
2021/03/29 01:56:13;;;;;;;0.43;0.43;;;;;;;;;;5090721;28;20219;-68
2021/03/29 01:58:39;;;;;;;0.55;0.55;;;;;;;;;;5091450;28;20251;-68
2021/03/29 02:01:08;;;;;;;0.15;0.15;;;;;;;;;;5091467;28;20191;-68
2021/03/29 02:03:35;;;;;;;0.80;0.80;;;;;;;;;;5091410;28;20179;-68
2021/03/29 02:06:02;;;;;;;0.10;0.10;;;;;;;;;;5091333;28;20184;-68
2021/03/29 02:08:29;;;;;;;1.58;1.48;;;;;;;;;;5091159;28;20198;-68
2021/03/29 02:10:56;;;;;;;0.68;0.60;;;;;;;;;;5073295;28;20164;-68
2021/03/29 02:13:24;;;;;;;1.08;0.98;;;;;;;;;;5091188;28;20215;-68
2021/03/29 02:15:52;;;;;;;0.35;0.35;;;;;;;;;;5073249;28;20172;-68
2021/03/29 02:18:20;;;;;;;0.77;0.77;;;;;;;;;;5091049;28;20199;-68
2021/03/29 02:20:46;;;;;;;0.63;0.63;;;;;;;;;;5072924;28;20176;-68
2021/03/29 02:23:15;;;;;;;0.55;0.55;;;;;;;;;;5090996;28;20168;-68
2021/03/29 02:25:42;;;;;;;0.73;0.73;;;;;;;;;;5090966;28;20592;-68
2021/03/29 02:28:08;;;;;;;1.48;0.90;;;;;;;;;;5072757;28;20207;-68
2021/03/29 02:30:36;;;;;;;0.52;0.52;;;;;;;;;;5090809;28;20156;-68
2021/03/29 02:33:04;;;;;;;0.20;0.20;;;;;;;;;;5072616;28;20172;-68
2021/03/29 02:35:30;;;;;;;0.20;0.20;;;;;;;;;;5072748;28;20168;-68
2021/03/29 02:37:57;;;;;;;0.38;0.38;;;;;;;;;;5090589;28;20234;-68
2021/03/29 02:40:25;;;;;;;0.40;0.40;;;;;;;;;;5072614;28;20182;-68
2021/03/29 02:42:53;;;;;;;0.20;0.20;;;;;;;;;;5090453;28;20168;-68
2021/03/29 02:45:20;;;;;;;0.20;0.20;;;;;;;;;;5090424;28;20251;-68
2021/03/29 02:47:47;;;;;;;0.20;0.20;;;;;;;;;;5090099;28;20211;-69
2021/03/29 02:50:16;;;;;;;0.85;0.85;;;;;;;;;;5054165;28;20233;-68
2021/03/29 02:52:44;;;;;;;0.45;0.45;;;;;;;;;;5030315;28;20246;-68
2021/03/29 02:55:12;;;;;;;1.25;1.25;;;;;;;;;;5029155;28;20623;-68
2021/03/29 02:57:39;;;;;;;0.85;0.85;;;;;;;;;;5028702;28;20193;-69
2021/03/29 03:00:13;;;;;;;0.82;0.82;;;;;;;;;;5028571;28;20209;-68
2021/03/29 03:02:39;;;;;;;0.30;0.30;;;;;;;;;;5030248;28;20169;-68
2021/03/29 03:05:07;;;;;;;2.40;1.58;;;;;;;;;;5030180;28;20581;-68
2021/03/29 03:07:33;;;;;;;0.32;0.32;;;;;;;;;;5029147;28;20194;-68
2021/03/29 03:10:00;;;;;;;0.55;0.55;;;;;;;;;;5029839;28;20197;-69
2021/03/29 03:12:27;;;;;;;0.10;0.10;;;;;;;;;;5030043;28;20159;-68
2021/03/29 03:14:54;;;;;;;0.32;0.32;;;;;;;;;;5030044;28;20545;-68
2021/03/29 03:17:20;;;;;;;0.50;0.50;;;;;;;;;;5029972;28;20185;-68
2021/03/29 03:19:46;;;;;;;0.75;0.75;;;;;;;;;;5028725;28;20202;-68
2021/03/29 03:22:13;;;;;;;0.50;0.50;;;;;;;;;;5029834;28;20163;-68
2021/03/29 03:24:39;;;;;;;0.50;0.45;;;;;;;;;;5030073;28;20177;-68
2021/03/29 03:27:09;;;;;;;1.27;1.20;;;;;;;;;;5029885;28;20190;-68
2021/03/29 03:29:42;;;;;;;0.80;0.80;;;;;;;;;;5029685;28;20192;-69
2021/03/29 03:32:15;;;;;;;0.50;0.50;;;;;;;;;;5028601;28;20178;-69
2021/03/29 03:34:42;;;;;;;1.55;1.17;;;;;;;;;;5029766;28;20157;-68
2021/03/29 03:37:18;;;;;;;0.10;0.10;;;;;;;;;;5029979;28;20169;-68
2021/03/29 03:39:45;;;;;;;0.75;0.38;;;;;;;;;;5029622;28;20583;-69
2021/03/29 03:42:13;;;;;;;0.28;0.28;;;;;;;;;;5029599;28;20193;-69
2021/03/29 03:44:40;;;;;;;0.10;0.10;;;;;;;;;;5029693;28;20169;-68
2021/03/29 03:47:07;;;;;;;1.10;1.10;;;;;;;;;;5029332;28;20189;-68
2021/03/29 03:49:33;;;;;;;0.17;0.17;;;;;;;;;;5029118;28;20221;-69
2021/03/29 03:52:00;;;;;;;0.35;0.35;;;;;;;;;;5029487;28;20169;-68
2021/03/29 03:54:26;;;;;;;0.20;0.20;;;;;;;;;;5029382;28;20188;-68
2021/03/29 03:56:53;;;;;;;0.40;0.40;;;;;;;;;;5029463;28;20204;-68
2021/03/29 03:59:19;;;;;;;0.82;0.82;;;;;;;;;;5029101;28;20170;-68
2021/03/29 04:02:06;;;;;;;0.20;0.20;;;;;;;;;;5029299;28;20261;-68
2021/03/29 04:04:33;;;;;;;0.00;0.00;;;;;;;;;;5029358;28;20158;-68
2021/03/29 04:06:59;;;;;;;0.68;0.68;;;;;;;;;;5029188;28;20213;-68
2021/03/29 04:09:33;;;;;;;0.45;0.45;;;;;;;;;;5028761;28;20226;-68
2021/03/29 04:12:04;;;;;;;0.03;0.03;;;;;;;;;;5029240;28;20169;-68
2021/03/29 04:14:31;;;;;;;0.60;0.60;;;;;;;;;;5029072;28;20238;-68
2021/03/29 04:16:57;;;;;;;0.57;0.40;;;;;;;;;;5029335;28;20224;-69
2021/03/29 04:19:23;;;;;;;2.50;0.65;;;;;;;;;;5030347;28;20166;-68
2021/03/29 04:21:49;;;;;;;0.10;0.10;;;;;;;;;;5033020;28;20170;-68
2021/03/29 04:24:15;;;;;;;0.22;0.22;;;;;;;;;;5033211;28;20193;-68
2021/03/29 04:26:42;;;;;;;0.93;0.77;;;;;;;;;;5033108;28;20248;-68
2021/03/29 04:29:08;;;;;;;0.40;0.40;;;;;;;;;;5033016;28;20190;-69
2021/03/29 04:31:35;;;;;;;0.20;0.20;;;;;;;;;;5032523;28;20189;-68
2021/03/29 04:34:02;;;;;;;1.30;1.30;;;;;;;;;;5032926;28;20188;-69
2021/03/29 04:36:28;;;;;;;0.55;0.55;;;;;;;;;;5015472;28;20259;-68
2021/03/29 04:38:54;;;;;;;0.20;0.20;;;;;;;;;;5032926;28;20158;-68
2021/03/29 04:41:20;;;;;;;0.10;0.10;;;;;;;;;;5032767;28;20220;-68
2021/03/29 04:43:46;;;;;;;0.52;0.52;;;;;;;;;;5032859;28;20170;-68
2021/03/29 04:46:13;;;;;;;0.10;0.10;;;;;;;;;;5015108;28;20186;-68
2021/03/29 04:48:39;;;;;;;0.40;0.40;;;;;;;;;;5018063;28;20235;-68
2021/03/29 04:51:06;;;;;;;0.73;0.63;;;;;;;;;;5034578;28;20216;-68
2021/03/29 04:53:32;;;;;;;0.73;0.73;;;;;;;;;;5052453;28;20173;-68
2021/03/29 04:55:58;;;;;;;0.28;0.28;;;;;;;;;;5034689;28;20185;-68
2021/03/29 04:58:25;;;;;;;1.20;1.20;;;;;;;;;;5052404;28;20536;-68
2021/03/29 05:00:51;;;;;;;3.83;1.27;;;;;;;;;;5052258;28;20190;-69
2021/03/29 05:03:17;;;;;;;0.15;0.15;;;;;;;;;;5052365;28;20172;-68
2021/03/29 05:05:43;;;;;;;0.30;0.30;;;;;;;;;;5034445;28;20173;-69
2021/03/29 05:08:10;;;;;;;0.30;0.30;;;;;;;;;;5034543;28;20193;-69
2021/03/29 05:10:40;;;;;;;0.20;0.20;;;;;;;;;;5052022;28;20200;-68
2021/03/29 05:13:07;;;;;;;0.57;0.55;;;;;;;;;;5052033;28;20524;-68
2021/03/29 05:15:34;;;;;;;0.28;0.28;;;;;;;;;;5052030;28;20185;-68
2021/03/29 05:18:00;;;;;;;0.20;0.20;;;;;;;;;;5051994;28;20194;-68
2021/03/29 05:20:26;;;;;;;0.10;0.10;;;;;;;;;;5034128;28;20197;-68
2021/03/29 05:22:53;;;;;;;1.05;1.05;;;;;;;;;;5051979;28;20177;-68
2021/03/29 05:25:19;;;;;;;1.88;1.77;;;;;;;;;;5034166;28;20169;-68
2021/03/29 05:27:45;;;;;;;0.28;0.28;;;;;;;;;;5051722;28;20193;-68
2021/03/29 05:30:11;;;;;;;0.85;0.85;;;;;;;;;;5033135;28;20193;-68
2021/03/29 05:32:38;;;;;;;0.90;0.90;;;;;;;;;;5032906;28;20170;-68
2021/03/29 05:35:05;;;;;;;0.30;0.30;;;;;;;;;;5051789;28;20237;-68
2021/03/29 05:37:31;;;;;;;0.80;0.80;;;;;;;;;;5051467;28;20164;-68
2021/03/29 05:39:58;;;;;;;0.30;0.30;;;;;;;;;;5052406;28;20243;-68
2021/03/29 05:42:26;;;;;;;0.20;0.20;;;;;;;;;;5069442;28;20181;-67
2021/03/29 05:44:52;;;;;;;0.35;0.35;;;;;;;;;;5053066;28;20169;-68
2021/03/29 05:47:19;;;;;;;0.30;0.30;;;;;;;;;;5053184;28;20192;-67
2021/03/29 05:49:46;;;;;;;1.17;1.17;;;;;;;;;;5052847;28;20224;-67
2021/03/29 05:52:12;;;;;;;0.25;0.25;;;;;;;;;;5071091;28;20169;-67
2021/03/29 05:54:39;;;;;;;2.85;2.05;;;;;;;;;;5053177;28;20196;-68
2021/03/29 05:57:06;;;;;;;0.50;0.50;;;;;;;;;;5068553;28;20200;-68
2021/03/29 05:59:41;;;;;;;0.20;0.20;;;;;;;;;;5070859;28;20227;-68
2021/03/29 06:02:08;;;;;;;2.92;2.60;;;;;;;;;;5070828;28;20163;-67
2021/03/29 06:04:40;;;;;;;0.38;0.38;;;;;;;;;;5071153;28;20201;-69
2021/03/29 06:07:12;;;;;;;1.13;1.10;;;;;;;;;;5070760;28;20185;-68
2021/03/29 06:09:38;;;;;;;1.20;1.20;;;;;;;;;;5052890;28;20168;-67
2021/03/29 06:12:05;;;;;;;2.83;1.42;;;;;;;;;;5070913;28;20189;-68
2021/03/29 06:14:31;;;;;;;0.52;0.52;;;;;;;;;;5052748;28;20744;-68
2021/03/29 06:17:05;;;;;;;2.13;2.03;;;;;;;;;;5070862;28;20518;-68
2021/03/29 06:19:37;;;;;;;0.17;0.17;;;;;;;;;;5052741;28;20199;-68
2021/03/29 06:22:06;;;;;;;1.40;0.80;;;;;;;;;;5063543;28;21045;-68
2021/03/29 06:24:50;;;;;;;2.20;1.85;;;;;;;;;;5060044;28;20286;-68
2021/03/29 06:27:16;;;;;;;6.85;1.65;;;;;;;;;;5070225;28;20634;-68
2021/03/29 06:29:42;;;;;;;0.32;0.32;;;;;;;;;;5070415;28;20248;-68
2021/03/29 06:32:09;;;;;;;1.15;1.10;;;;;;;;;;5052283;28;20181;-68
2021/03/29 06:34:35;;;;;;;2.20;1.65;;;;;;;;;;5070441;28;20531;-68
2021/03/29 06:37:08;;;;;;;0.88;0.88;;;;;;;;;;5070467;28;20184;-68
2021/03/29 06:39:41;;;;;;;0.45;0.45;;;;;;;;;;5070217;28;20228;-68
2021/03/29 06:42:08;;;;;;;1.38;1.27;;;;;;;;;;5069688;28;20181;-68
2021/03/29 06:44:35;;;;;;;0.20;0.20;;;;;;;;;;5066120;28;20176;-68
2021/03/29 06:47:05;;;;;;;1.52;1.35;;;;;;;;;;5072086;28;20188;-68
2021/03/29 06:49:39;;;;;;;0.65;0.65;;;;;;;;;;5068314;28;20216;-68
2021/03/29 06:52:20;;;;;;;1.10;1.10;;;;;;;;;;5068624;28;20174;-68
2021/03/29 06:54:47;;;;;;;0.55;0.55;;;;;;;;;;5028907;28;20174;-67
2021/03/29 06:57:13;;;;;;;1.42;0.90;;;;;;;;;;5028714;28;20189;-68
2021/03/29 06:59:40;;;;;;;0.50;0.50;;;;;;;;;;5029891;28;20205;-68
2021/03/29 07:02:07;;;;;;;1.02;0.55;;;;;;;;;;5028819;28;20178;-68
2021/03/29 07:04:36;;;;;;;0.30;0.30;;;;;;;;;;5029881;28;20158;-68
2021/03/29 07:07:03;;;;;;;0.73;0.73;;;;;;;;;;5029679;28;20246;-68
2021/03/29 07:09:36;;;;;;;1.08;0.47;;;;;;;;;;5029892;28;20627;-68
2021/03/29 07:12:06;;;;;;;0.65;0.65;;;;;;;;;;5028347;28;20173;-68
2021/03/29 07:14:34;;;;;;;1.30;1.20;;;;;;;;;;5029702;28;20162;-68
2021/03/29 07:17:00;;;;;;;0.22;0.22;;;;;;;;;;5029803;28;20619;-68
2021/03/29 07:19:28;;;;;;;0.93;0.68;;;;;;;;;;5029545;28;20163;-68
2021/03/29 07:21:54;;;;;;;1.88;1.77;;;;;;;;;;5029551;28;20197;-68
2021/03/29 07:24:21;;;;;;;1.13;1.10;;;;;;;;;;5028502;28;20174;-69
2021/03/29 07:27:02;;;;;;;0.20;0.20;;;;;;;;;;5029477;28;20194;-68
2021/03/29 07:29:28;;;;;;;0.28;0.28;;;;;;;;;;5029443;28;20158;-68
2021/03/29 07:32:00;;;;;;;1.08;0.95;;;;;;;;;;5043149;28;20177;-68
2021/03/29 07:34:47;;;;;;;0.50;0.50;;;;;;;;;;5047949;28;20169;-68
2021/03/29 07:37:32;;;;;;;0.38;0.38;;;;;;;;;;5049317;28;20164;-68
2021/03/29 07:40:00;;;;;;;1.40;1.30;;;;;;;;;;5049146;28;20196;-70
2021/03/29 07:42:26;;;;;;;0.20;0.20;;;;;;;;;;5047562;28;20173;-68
2021/03/29 07:45:07;;;;;;;0.22;0.22;;;;;;;;;;5047965;28;20232;-68
2021/03/29 07:47:44;;;;;;;0.85;0.85;;;;;;;;;;5047687;28;20197;-68
2021/03/29 07:50:15;;;;;;;1.35;1.33;;;;;;;;;;5030440;28;20221;-68
2021/03/29 07:52:42;;;;;;;0.45;0.45;;;;;;;;;;5040628;28;20173;-68
2021/03/29 07:55:25;;;;;;;1.35;0.85;;;;;;;;;;5038144;28;20590;-68
2021/03/29 07:57:52;;;;;;;0.90;0.90;;;;;;;;;;5043211;28;20169;-68
2021/03/29 08:00:24;;;;;;;3.33;1.70;;;;;;;;;;5037652;28;20189;-68
2021/03/29 08:02:51;;;;;;;0.30;0.30;;;;;;;;;;5037422;28;20201;-68
2021/03/29 08:05:37;;;;;;;1.92;1.60;;;;;;;;;;5040064;28;20185;-68
2021/03/29 08:08:04;;;;;;;8.63;1.23;;;;;;;;;;5022999;28;20219;-68
2021/03/29 08:10:48;;;;;;;2.80;2.00;;;;;;;;;;5040088;28;20559;-68
2021/03/29 08:13:34;;;;;;;1.20;1.20;;;;;;;;;;5039219;28;20165;-68
2021/03/29 08:16:00;;;;;;;3.83;1.17;;;;;;;;;;5037940;28;20162;-68
2021/03/29 08:18:27;;;;;;;1.98;1.25;;;;;;;;;;5037899;28;20216;-68
2021/03/29 08:20:54;;;;;;;0.40;0.40;;;;;;;;;;5036371;28;20269;-68
2021/03/29 08:23:33;;;;;;;1.42;1.33;;;;;;;;;;5035947;28;20225;-68
2021/03/29 08:26:12;;;;;;;0.63;0.63;;;;;;;;;;5020392;28;20169;-68
2021/03/29 08:28:57;;;;;;;1.65;1.38;;;;;;;;;;5047891;28;20229;-68
2021/03/29 08:31:41;;;;;;;2.63;1.92;;;;;;;;;;5048397;28;20643;-68
2021/03/29 08:34:08;;;;;;;1.75;1.65;;;;;;;;;;5041677;28;20228;-68
2021/03/29 08:36:38;;;;;;;12.65;1.35;;;;;;;;;;5035798;28;20205;-67
2021/03/29 08:39:04;;;;;;;1.65;0.60;;;;;;;;;;5024054;28;20201;-68
2021/03/29 08:41:30;;;;;;;1.45;1.13;;;;;;;;;;5020687;28;20692;-68
2021/03/29 08:43:57;;;;;;;1.65;1.38;;;;;;;;;;5039603;28;20584;-68
2021/03/29 08:46:24;;;;;;;1.35;1.27;;;;;;;;;;5048299;28;20180;-68
2021/03/29 08:48:50;;;;;;;2.67;0.75;;;;;;;;;;5052147;28;20219;-68
2021/03/29 08:51:21;;;;;;;1.05;0.75;;;;;;;;;;5040258;28;20200;-68
2021/03/29 08:54:03;;;;;;;1.20;1.17;;;;;;;;;;5050365;28;20165;-69
2021/03/29 08:56:42;;;;;;;2.72;2.30;;;;;;;;;;5050045;28;20571;-68
2021/03/29 08:59:09;;;;;;;0.30;0.30;;;;;;;;;;5049278;28;20169;-68
2021/03/29 09:01:35;;;;;;;0.73;0.73;;;;;;;;;;5068220;28;20341;-69
2021/03/29 09:04:08;;;;;;;0.57;0.57;;;;;;;;;;5068296;28;20163;-68
2021/03/29 09:06:35;;;;;;;0.20;0.20;;;;;;;;;;5053019;28;20200;-67
2021/03/29 09:09:14;;;;;;;1.25;1.25;;;;;;;;;;5066921;28;20173;-68
2021/03/29 09:11:51;;;;;;;0.43;0.40;;;;;;;;;;5051491;28;20591;-68
2021/03/29 09:14:19;;;;;;;1.58;1.48;;;;;;;;;;5079531;28;20179;-69
2021/03/29 09:16:46;;;;;;;0.98;0.98;;;;;;;;;;5091785;28;20239;-68
2021/03/29 09:19:16;;;;;;;1.25;1.15;;;;;;;;;;5091715;28;20166;-68
2021/03/29 09:21:43;;;;;;;1.48;1.35;;;;;;;;;;5090567;28;20195;-69
2021/03/29 09:24:15;;;;;;;1.20;1.10;;;;;;;;;;5073554;28;20160;-68
2021/03/29 09:26:42;;;;;;;1.85;1.58;;;;;;;;;;5091607;28;20196;-68
2021/03/29 09:29:20;;;;;;;0.77;0.75;;;;;;;;;;5091558;28;20157;-69
2021/03/29 09:31:46;;;;;;;1.55;0.68;;;;;;;;;;5090425;28;20282;-68
2021/03/29 09:34:13;;;;;;;1.10;1.00;;;;;;;;;;5091246;28;20202;-69
2021/03/29 09:36:39;;;;;;;0.80;0.80;;;;;;;;;;5087952;28;20638;-68
2021/03/29 09:39:13;;;;;;;2.60;0.98;;;;;;;;;;5070660;28;20192;-68
2021/03/29 09:41:48;;;;;;;26.80;1.42;;;;;;;;;;5069147;28;20928;-69
2021/03/29 09:44:14;;;;;;;2.83;2.10;;;;;;;;;;5069244;28;20199;-68
2021/03/29 09:46:41;;;;;;;2.63;1.15;;;;;;;;;;5053205;28;20260;-68
2021/03/29 09:49:15;;;;;;;2.15;0.88;;;;;;;;;;5071067;28;20215;-68
2021/03/29 09:51:42;;;;;;;2.03;1.73;;;;;;;;;;5070919;28;20668;-68
2021/03/29 09:54:20;;;;;;;0.65;0.57;;;;;;;;;;5051869;28;20172;-68
2021/03/29 09:56:47;;;;;;;0.30;0.30;;;;;;;;;;5070488;28;20202;-68
2021/03/29 09:59:13;;;;;;;2.30;1.83;;;;;;;;;;5070832;28;20641;-68
2021/03/29 10:01:44;;;;;;;3.35;1.23;;;;;;;;;;5070241;28;20624;-68
2021/03/29 10:04:14;;;;;;;3.70;1.10;;;;;;;;;;5069673;28;20168;-68
2021/03/29 10:06:50;;;;;;;1.98;0.60;;;;;;;;;;5052824;28;20538;-67
2021/03/29 10:09:28;;;;;;;1.25;0.82;;;;;;;;;;5070772;28;20171;-68
2021/03/29 10:11:54;;;;;;;0.55;0.55;;;;;;;;;;5070228;28;20243;-67
2021/03/29 10:14:20;;;;;;;5.68;1.98;;;;;;;;;;5069633;28;20161;-68
2021/03/29 10:16:48;;;;;;;0.30;0.30;;;;;;;;;;5069890;28;20192;-68
2021/03/29 10:19:29;;;;;;;0.25;0.25;;;;;;;;;;5070542;28;20180;-67
2021/03/29 10:22:09;;;;;;;1.33;1.25;;;;;;;;;;5052434;28;20176;-68
2021/03/29 10:24:36;;;;;;;1.70;1.60;;;;;;;;;;5070264;28;20179;-67
2021/03/29 10:27:07;;;;;;;0.52;0.52;;;;;;;;;;5051863;28;20267;-67
2021/03/29 10:29:37;;;;;;;4.20;1.38;;;;;;;;;;5070259;28;20170;-67
2021/03/29 10:32:13;;;;;;;1.42;0.90;;;;;;;;;;5052058;28;20247;-68
2021/03/29 10:34:41;;;;;;;1.17;0.93;;;;;;;;;;5068975;28;20255;-67
2021/03/29 10:37:27;;;;;;;1.77;0.22;;;;;;;;;;5089200;28;20195;-68
2021/03/29 10:39:55;;;;;;;11.50;0.57;;;;;;;;;;5089792;28;20210;-67
2021/03/29 10:42:22;;;;;;;0.30;0.10;;;;;;;;;;5090011;28;20171;-68
2021/03/29 10:44:49;;;;;;;0.10;0.10;;;;;;;;;;5071645;28;20170;-68
2021/03/29 10:47:15;;;;;;;0.40;0.35;;;;;;;;;;5053875;28;20613;-67
2021/03/29 10:49:41;;;;;;;0.17;0.17;;;;;;;;;;5069504;28;20291;-68
2021/03/29 10:52:08;;;;;;;0.30;0.30;;;;;;;;;;5070006;28;20164;-68
2021/03/29 10:54:34;;;;;;;0.08;0.08;;;;;;;;;;5069774;28;20177;-67
2021/03/29 10:57:01;;;;;;;0.00;0.00;;;;;;;;;;5068856;28;20218;-68
2021/03/29 10:59:27;;;;;;;11.50;0.77;;;;;;;;;;5068500;28;20224;-68
2021/03/29 11:01:53;;;;;;;0.25;0.25;;;;;;;;;;5069725;28;20240;-68
2021/03/29 11:04:19;;;;;;;1.13;0.60;;;;;;;;;;5069753;28;20214;-68
2021/03/29 11:06:46;;;;;;;0.38;0.38;;;;;;;;;;5069669;28;20170;-68
2021/03/29 11:09:12;;;;;;;2.42;1.17;;;;;;;;;;5069637;28;20621;-68
2021/03/29 11:11:38;;;;;;;0.00;0.00;;;;;;;;;;5069411;28;20214;-67
2021/03/29 11:14:05;;;;;;;0.45;0.45;;;;;;;;;;5069475;28;20643;-67
2021/03/29 11:16:33;;;;;;;0.00;0.00;;;;;;;;;;5069493;28;20171;-68
2021/03/29 11:18:59;;;;;;;0.10;0.10;;;;;;;;;;5069435;28;20153;-69
2021/03/29 11:21:26;;;;;;;0.75;0.75;;;;;;;;;;5069233;28;20184;-68
2021/03/29 11:23:52;;;;;;;8.05;1.27;;;;;;;;;;5069228;28;20165;-68
2021/03/29 11:26:18;;;;;;;3.40;0.90;;;;;;;;;;5069356;28;20215;-69
2021/03/29 11:28:45;;;;;;;0.13;0.13;;;;;;;;;;5068471;28;20171;-68
2021/03/29 11:31:11;;;;;;;0.20;0.13;;;;;;;;;;5069324;28;20199;-68
2021/03/29 11:33:37;;;;;;;0.47;0.45;;;;;;;;;;5068996;28;20164;-68
2021/03/29 11:36:03;;;;;;;0.22;0.22;;;;;;;;;;5064474;28;20741;-69
2021/03/29 11:38:29;;;;;;;0.17;0.17;;;;;;;;;;5089145;28;20203;-68
2021/03/29 11:40:56;;;;;;;0.17;0.10;;;;;;;;;;5071027;28;20197;-68
2021/03/29 11:43:22;;;;;;;4.18;0.63;;;;;;;;;;5088964;28;20163;-68
2021/03/29 11:45:48;;;;;;;0.30;0.30;;;;;;;;;;5089088;28;20172;-68
2021/03/29 11:48:14;;;;;;;0.30;0.20;;;;;;;;;;5070807;28;20212;-68
2021/03/29 11:50:40;;;;;;;0.93;0.52;;;;;;;;;;5070827;28;20187;-68
2021/03/29 11:53:07;;;;;;;0.00;0.00;;;;;;;;;;5070926;28;20629;-68
2021/03/29 11:55:33;;;;;;;0.80;0.20;;;;;;;;;;5089063;28;20186;-68
2021/03/29 11:58:01;;;;;;;1.10;0.50;;;;;;;;;;5070749;28;20257;-68
2021/03/29 12:00:30;;;;;;;0.88;0.85;;;;;;;;;;5088681;28;20143;-68
2021/03/29 12:05:31;;;;;;;0.20;0.20;;;;;;;;;;5089273;28;20517;-68
2021/03/29 12:13:25;;;;;;;0.20;0.20;;;;;;;;;;5088637;28;20170;-68
2021/03/29 12:15:54;;;;;;;0.63;0.63;;;;;;;;;;5088908;28;20186;-68
2021/03/29 12:18:31;;;;;;;0.13;0.13;;;;;;;;;;5088707;28;20199;-68
2021/03/29 12:20:57;;;;;;;0.20;0.20;;;;;;;;;;5088509;28;20147;-68
2021/03/29 12:23:24;;;;;;;0.13;0.13;;;;;;;;;;5070803;28;20219;-68
2021/03/29 12:25:50;;;;;;;2.60;0.52;;;;;;;;;;5088596;28;20164;-68
2021/03/29 12:28:17;;;;;;;0.20;0.20;;;;;;;;;;5088464;28;20202;-68
2021/03/29 12:30:43;;;;;;;0.20;0.20;;;;;;;;;;5088701;28;20541;-68
2021/03/29 12:33:10;;;;;;;0.10;0.10;;;;;;;;;;5070433;28;20164;-68
2021/03/29 12:35:36;;;;;;;0.40;0.40;;;;;;;;;;5060771;28;20218;-68
2021/03/29 12:38:03;;;;;;;0.35;0.35;;;;;;;;;;5086480;28;20211;-68
2021/03/29 12:40:31;;;;;;;0.00;0.00;;;;;;;;;;5071890;28;20164;-67
2021/03/29 12:45:25;;;;;;;3.13;1.05;;;;;;;;;;5088373;28;20183;-68
2021/03/29 12:47:52;;;;;;;0.50;0.50;;;;;;;;;;5052097;28;20673;-68
2021/03/29 12:50:19;;;;;;;0.10;0.10;;;;;;;;;;5054223;28;20234;-67
2021/03/29 12:52:47;;;;;;;0.80;0.80;;;;;;;;;;5081557;28;20207;-68
2021/03/29 12:55:15;;;;;;;0.10;0.10;;;;;;;;;;5072152;28;20157;-67
2021/03/29 12:57:42;;;;;;;0.20;0.20;;;;;;;;;;5071831;28;20204;-68
2021/03/29 13:00:09;;;;;;;0.10;0.10;;;;;;;;;;5054119;28;20222;-68
2021/03/29 13:02:36;;;;;;;0.22;0.22;;;;;;;;;;5054147;28;20188;-67
2021/03/29 13:05:03;;;;;;;0.73;0.57;;;;;;;;;;5072076;28;20210;-67
2021/03/29 13:07:39;;;;;;;0.68;0.05;;;;;;;;;;5071938;28;20220;-68
2021/03/29 13:12:51;;;;;;;0.65;0.65;;;;;;;;;;5071352;28;20226;-68
2021/03/29 13:15:20;;;;;;;0.32;0.32;;;;;;;;;;5071745;28;20184;-68
2021/03/29 13:17:46;;;;;;;1.23;0.47;;;;;;;;;;5071612;28;20264;-69
2021/03/29 13:20:12;;;;;;;0.03;0.03;;;;;;;;;;5071741;28;20221;-68
2021/03/29 13:22:39;;;;;;;0.10;0.10;;;;;;;;;;5071614;28;20164;-68
2021/03/29 13:25:06;;;;;;;0.63;0.20;;;;;;;;;;5053854;28;20180;-68
2021/03/29 13:27:32;;;;;;;0.40;0.40;;;;;;;;;;5063684;28;21768;-68
2021/03/29 13:30:03;;;;;;;0.20;0.20;;;;;;;;;;5063961;28;20184;-68
2021/03/29 13:32:29;;;;;;;0.38;0.38;;;;;;;;;;5071432;28;20229;-68
2021/03/29 13:34:56;;;;;;;0.65;0.65;;;;;;;;;;5070991;28;20184;-68
2021/03/29 13:37:22;;;;;;;1.55;0.32;;;;;;;;;;5074946;28;20243;-68
2021/03/29 13:39:50;;;;;;;0.35;0.35;;;;;;;;;;5071160;28;20618;-68
2021/03/29 13:42:16;;;;;;;0.10;0.10;;;;;;;;;;5058494;28;20219;-68
2021/03/29 13:44:42;;;;;;;1.17;1.08;;;;;;;;;;5068898;28;20175;-68
2021/03/29 13:47:09;;;;;;;0.75;0.40;;;;;;;;;;5044806;28;20212;-68
2021/03/29 13:49:36;;;;;;;0.47;0.45;;;;;;;;;;5065056;28;20284;-68
2021/03/29 13:52:02;;;;;;;0.30;0.30;;;;;;;;;;5069982;28;20208;-68
2021/03/29 13:54:33;;;;;;;0.38;0.28;;;;;;;;;;5070125;28;20240;-68
2021/03/29 13:56:59;;;;;;;0.77;0.47;;;;;;;;;;5050246;28;20201;-68
2021/03/29 13:59:25;;;;;;;0.25;0.25;;;;;;;;;;5068076;28;20163;-68
2021/03/29 14:01:52;;;;;;;0.45;0.45;;;;;;;;;;5069834;28;20165;-68
2021/03/29 14:04:19;;;;;;;0.10;0.10;;;;;;;;;;5070108;28;20200;-68
2021/03/29 14:06:46;;;;;;;2.22;0.90;;;;;;;;;;5069886;28;20243;-68
2021/03/29 14:09:14;;;;;;;1.65;0.88;;;;;;;;;;5070205;28;20167;-68
2021/03/29 14:11:40;;;;;;;1.83;0.47;;;;;;;;;;5052987;28;20247;-69
2021/03/29 14:14:06;;;;;;;0.00;0.00;;;;;;;;;;5053065;28;20224;-68
2021/03/29 14:16:33;;;;;;;0.10;0.10;;;;;;;;;;5052960;28;20692;-68
2021/03/29 14:19:02;;;;;;;0.10;0.10;;;;;;;;;;5052973;28;20244;-68
2021/03/29 14:21:28;;;;;;;0.10;0.10;;;;;;;;;;5052844;28;20165;-68
2021/03/29 14:23:54;;;;;;;0.45;0.45;;;;;;;;;;5052493;28;20196;-69
2021/03/29 14:26:21;;;;;;;0.77;0.77;;;;;;;;;;5070617;28;20161;-68
2021/03/29 14:28:47;;;;;;;3.00;1.83;;;;;;;;;;5070718;28;20526;-68
2021/03/29 14:31:13;;;;;;;0.15;0.15;;;;;;;;;;5070483;28;20168;-68
2021/03/29 14:33:43;;;;;;;0.40;0.40;;;;;;;;;;5052229;28;20172;-68
2021/03/29 14:46:34;;;;;;;0.73;0.25;;;;;;;;;;5090280;28;20179;-67
2021/03/29 14:49:00;;;;;;;0.10;0.10;;;;;;;;;;5089468;28;20854;-68
2021/03/29 14:51:27;;;;;;;0.70;0.70;;;;;;;;;;5090148;28;20172;-68
2021/03/29 14:53:54;;;;;;;1.42;1.25;;;;;;;;;;5090067;28;20145;-68
2021/03/29 14:56:21;;;;;;;0.20;0.15;;;;;;;;;;5089934;28;20179;-68
2021/03/29 14:58:47;;;;;;;0.10;0.10;;;;;;;;;;5090209;28;20253;-68
2021/03/29 15:01:13;;;;;;;0.93;0.75;;;;;;;;;;5071871;28;20245;-68
2021/03/29 15:03:39;;;;;;;3.05;0.70;;;;;;;;;;5089831;28;20158;-68
2021/03/29 15:08:34;;;;;;;9.63;0.50;;;;;;;;;;5089096;28;20203;-68
2021/03/29 15:11:01;;;;;;;0.10;0.10;;;;;;;;;;5070854;28;20180;-68
2021/03/29 15:13:27;;;;;;;0.10;0.10;;;;;;;;;;5088798;28;20167;-68
2021/03/29 15:15:53;;;;;;;0.10;0.10;;;;;;;;;;5089120;28;20175;-68
2021/03/29 15:18:19;;;;;;;0.28;0.28;;;;;;;;;;5088783;28;20257;-67